Logan, Kansas
Current Conditions -  °F | °C
As of 11:53 PM on Thursday 27 Nov 2014 (Local Time) from KHLC Reporting Station
Clear Clear  
Wind Chill: 33°   Ceiling: Unl
Heat Index: 38°   Visibility: 10mi
Dew Point: 26°   Wind: 6mph
Humidity: 62%   Direction: 260°W
Pressure: 30"   Gusts: NA
Location:  39.66°N, 99.57°W
Report Text: KHLC 280553Z AUTO 26005KT 10SM CLR 03/M03 A3000 RMK AO2 SLP167 T00331033 10072 20022 401221067 56018
Loading
Personal Weather Stations






























Interactive Weather Map New forecast layout! Learn more

10-Day Weather Forecast

Advertisements
Track Severe Weather on mobile